createdAt,value
2022-10-04T00:01:08.258Z,13.00
2022-10-04T00:03:54.566Z,13.00
2022-10-04T00:06:25.946Z,13.00
2022-10-04T00:09:11.727Z,13.10
2022-10-04T00:11:43.444Z,13.10
2022-10-04T00:14:19.351Z,13.10
2022-10-04T00:16:46.153Z,13.10
2022-10-04T00:19:18.589Z,13.10
2022-10-04T00:21:57.174Z,13.00
2022-10-04T00:24:32.143Z,13.00
2022-10-04T00:27:19.073Z,12.90
2022-10-04T00:30:13.882Z,12.90
2022-10-04T00:32:40.694Z,12.90
2022-10-04T00:35:25.737Z,12.90
2022-10-04T00:38:26.107Z,12.80
2022-10-04T00:41:00.435Z,12.80
2022-10-04T00:43:41.045Z,12.80
2022-10-04T00:46:14.474Z,12.70
2022-10-04T00:48:49.174Z,12.70
2022-10-04T00:51:35.339Z,12.60
2022-10-04T00:54:09.110Z,12.60
2022-10-04T00:56:51.620Z,12.60
2022-10-04T00:59:25.386Z,12.60
2022-10-04T01:01:58.940Z,12.50
2022-10-04T01:04:52.599Z,12.50
2022-10-04T01:07:45.441Z,12.50
2022-10-04T01:10:19.814Z,12.60
2022-10-04T01:12:51.306Z,12.60
2022-10-04T01:15:50.540Z,12.60
2022-10-04T01:18:26.464Z,12.70
2022-10-04T01:20:55.452Z,12.70
2022-10-04T01:23:42.757Z,12.70
2022-10-04T01:26:29.999Z,12.60
2022-10-04T01:29:07.372Z,12.60
2022-10-04T01:31:39.518Z,12.70
2022-10-04T01:34:07.159Z,12.60
2022-10-04T01:36:35.222Z,12.40
2022-10-04T01:39:03.265Z,12.40
2022-10-04T01:41:46.213Z,12.40
2022-10-04T01:44:23.120Z,12.50
2022-10-04T01:46:51.501Z,12.50
2022-10-04T01:49:21.663Z,12.40
2022-10-04T01:51:55.811Z,12.40
2022-10-04T01:54:36.070Z,12.40
2022-10-04T01:57:13.021Z,12.40
2022-10-04T01:59:52.325Z,12.40
2022-10-04T02:02:26.506Z,12.40
2022-10-04T02:04:56.725Z,12.30
2022-10-04T02:07:26.456Z,12.40
2022-10-04T02:09:59.583Z,12.40
2022-10-04T02:12:28.174Z,12.50
2022-10-04T02:14:56.040Z,12.50
2022-10-04T02:17:35.117Z,12.40
2022-10-04T02:20:03.696Z,12.50
2022-10-04T02:22:30.959Z,12.40
2022-10-04T02:24:58.470Z,12.30
2022-10-04T02:27:30.082Z,12.30
2022-10-04T02:30:09.550Z,12.30
2022-10-04T02:32:57.342Z,12.30
2022-10-04T02:35:36.618Z,12.30
2022-10-04T02:38:24.999Z,12.20
2022-10-04T02:41:03.386Z,12.10
2022-10-04T02:43:30.402Z,12.10
2022-10-04T02:46:12.372Z,12.10
2022-10-04T02:48:59.544Z,12.20
2022-10-04T02:51:32.249Z,12.20
2022-10-04T02:54:27.536Z,12.10
2022-10-04T02:56:58.791Z,12.10
2022-10-04T02:59:26.302Z,12.10
2022-10-04T03:01:55.184Z,12.00
2022-10-04T03:04:28.915Z,11.90
2022-10-04T03:06:57.718Z,11.90
2022-10-04T03:09:29.635Z,12.00
2022-10-04T03:11:57.178Z,12.00
2022-10-04T03:14:26.857Z,12.00
2022-10-04T03:17:00.805Z,11.90
2022-10-04T03:19:30.337Z,11.90
2022-10-04T03:22:01.458Z,11.70
2022-10-04T03:24:44.162Z,11.60
2022-10-04T03:27:33.210Z,11.50
2022-10-04T03:30:00.219Z,11.60
2022-10-04T03:32:30.605Z,11.50
2022-10-04T03:35:04.094Z,11.50
2022-10-04T03:37:37.436Z,11.60
2022-10-04T03:40:09.618Z,11.60
2022-10-04T03:42:38.017Z,11.50
2022-10-04T03:45:14.478Z,11.50
2022-10-04T03:47:48.182Z,11.50
2022-10-04T03:50:26.643Z,11.60
2022-10-04T03:53:09.859Z,11.60
2022-10-04T03:55:40.864Z,11.70
2022-10-04T03:58:11.409Z,11.70
2022-10-04T04:00:43.935Z,11.70
2022-10-04T04:03:16.852Z,11.70
2022-10-04T04:05:53.293Z,11.60
2022-10-04T04:08:28.801Z,11.70
2022-10-04T04:10:58.605Z,11.50
2022-10-04T04:13:45.058Z,11.40
2022-10-04T04:16:12.349Z,11.30
2022-10-04T04:18:43.474Z,11.20
2022-10-04T04:21:14.264Z,11.20
2022-10-04T04:23:51.284Z,11.10
2022-10-04T04:26:25.438Z,11.10
2022-10-04T04:29:03.553Z,11.20
2022-10-04T04:31:44.032Z,11.20
2022-10-04T04:34:24.890Z,11.30
2022-10-04T04:36:57.148Z,11.20
2022-10-04T04:39:41.328Z,11.20
2022-10-04T04:42:11.189Z,11.30
2022-10-04T04:44:47.026Z,11.30
2022-10-04T04:47:47.881Z,11.20
2022-10-04T04:50:24.007Z,11.10
2022-10-04T04:53:12.103Z,11.20
2022-10-04T04:56:02.687Z,11.30
2022-10-04T04:58:36.644Z,11.30
2022-10-04T05:01:08.059Z,11.20
2022-10-04T05:03:36.197Z,11.00
2022-10-04T05:06:05.127Z,11.00
2022-10-04T05:08:38.567Z,11.00
2022-10-04T05:11:08.291Z,11.00
2022-10-04T05:13:50.435Z,11.00
2022-10-04T05:16:27.074Z,11.00
2022-10-04T05:19:03.937Z,10.90
2022-10-04T05:21:32.682Z,10.90
2022-10-04T05:24:15.253Z,10.80
2022-10-04T05:26:42.976Z,10.90
2022-10-04T05:29:15.521Z,10.90
2022-10-04T05:32:15.680Z,10.90
2022-10-04T05:34:48.645Z,10.90
2022-10-04T05:37:30.431Z,11.00
2022-10-04T05:40:17.909Z,10.90
2022-10-04T05:42:50.059Z,10.90
2022-10-04T05:45:28.832Z,10.80
2022-10-04T05:48:01.710Z,10.80
2022-10-04T05:50:35.087Z,10.70
2022-10-04T05:53:20.030Z,10.80
2022-10-04T05:55:58.386Z,10.80
2022-10-04T05:58:34.375Z,10.80
2022-10-04T06:01:38.655Z,10.90
2022-10-04T06:04:14.356Z,10.80
2022-10-04T06:06:59.488Z,10.80
2022-10-04T06:09:35.541Z,10.70
2022-10-04T06:12:08.266Z,10.80
2022-10-04T06:14:54.905Z,10.70
2022-10-04T06:17:29.404Z,10.70
2022-10-04T06:20:02.203Z,10.70
2022-10-04T06:22:29.194Z,10.70
2022-10-04T06:25:00.391Z,10.70
2022-10-04T06:27:47.968Z,10.70
2022-10-04T06:30:20.604Z,10.80
2022-10-04T06:33:08.233Z,10.80
2022-10-04T06:36:06.632Z,10.90
2022-10-04T06:38:39.265Z,10.80
2022-10-04T06:41:41.644Z,10.80
2022-10-04T06:44:12.683Z,11.00
2022-10-04T06:46:50.262Z,10.90
2022-10-04T06:49:40.377Z,10.90
2022-10-04T06:52:23.826Z,11.00
2022-10-04T06:55:08.971Z,11.10
2022-10-04T06:58:14.369Z,11.20
2022-10-04T07:01:19.910Z,11.10
2022-10-04T07:03:54.632Z,11.00
2022-10-04T07:06:27.822Z,11.10
2022-10-04T07:09:02.677Z,11.20
2022-10-04T07:11:43.188Z,11.20
2022-10-04T07:14:20.402Z,11.20
2022-10-04T07:16:49.369Z,11.30
2022-10-04T07:19:40.100Z,11.40
2022-10-04T07:22:06.833Z,11.50
2022-10-04T07:24:39.523Z,11.50
2022-10-04T07:27:13.339Z,11.60
2022-10-04T07:29:44.470Z,11.50
2022-10-04T07:32:27.417Z,11.50
2022-10-04T07:35:17.045Z,11.50
2022-10-04T07:38:06.065Z,11.60
2022-10-04T07:40:47.077Z,11.60
2022-10-04T07:43:27.533Z,11.80
2022-10-04T07:46:17.103Z,12.00
2022-10-04T07:48:44.049Z,12.00
2022-10-04T07:51:31.137Z,12.10
2022-10-04T07:54:16.806Z,12.10
2022-10-04T07:57:00.668Z,12.20
2022-10-04T07:59:36.619Z,12.10
2022-10-04T08:02:31.544Z,12.10
2022-10-04T08:05:17.455Z,12.00
2022-10-04T08:07:45.170Z,11.80
2022-10-04T08:10:25.767Z,12.00
2022-10-04T08:13:03.268Z,12.00
2022-10-04T08:15:41.420Z,12.10
2022-10-04T08:18:44.881Z,12.00
2022-10-04T08:21:23.398Z,12.00
2022-10-04T08:23:59.164Z,12.10
2022-10-04T08:26:56.679Z,12.20
2022-10-04T08:30:02.298Z,12.20
2022-10-04T08:33:07.712Z,12.20
2022-10-04T08:35:44.504Z,12.20
2022-10-04T08:38:49.307Z,12.20
2022-10-04T08:41:54.011Z,12.20
2022-10-04T08:45:06.612Z,12.30
2022-10-04T08:48:08.587Z,12.30
2022-10-04T08:51:17.192Z,12.40
2022-10-04T08:54:05.230Z,12.40
2022-10-04T08:57:00.073Z,12.50
2022-10-04T09:00:13.600Z,12.50
2022-10-04T09:03:16.799Z,12.60
2022-10-04T09:06:19.133Z,12.70
2022-10-04T09:08:58.105Z,12.80
2022-10-04T09:11:32.372Z,12.90
2022-10-04T09:14:08.067Z,13.00
2022-10-04T09:16:56.151Z,13.10
2022-10-04T09:19:30.972Z,13.20
2022-10-04T09:22:17.286Z,13.20
2022-10-04T09:24:53.645Z,13.20
2022-10-04T09:28:01.354Z,13.30
2022-10-04T09:30:40.041Z,13.40
2022-10-04T09:33:12.662Z,13.70
2022-10-04T09:36:07.563Z,13.70
2022-10-04T09:39:28.545Z,13.80
2022-10-04T09:42:13.124Z,14.00
2022-10-04T09:44:48.688Z,14.00
2022-10-04T09:47:32.002Z,14.20
2022-10-04T09:50:41.109Z,14.30
2022-10-04T09:53:07.883Z,14.50
2022-10-04T09:55:37.720Z,14.60
2022-10-04T09:58:30.519Z,14.60
2022-10-04T10:01:17.490Z,14.70
2022-10-04T10:04:23.759Z,14.70
2022-10-04T10:07:08.645Z,15.00
2022-10-04T10:10:13.555Z,15.20
2022-10-04T10:13:39.916Z,15.30
2022-10-04T10:16:41.063Z,15.40
2022-10-04T10:19:32.474Z,15.60
2022-10-04T10:22:36.998Z,15.70
2022-10-04T10:25:12.852Z,15.90
2022-10-04T10:27:52.490Z,16.10
2022-10-04T10:30:31.248Z,16.30
2022-10-04T10:33:00.826Z,16.50
2022-10-04T10:35:55.538Z,16.60
2022-10-04T10:38:36.278Z,16.60
2022-10-04T10:41:21.225Z,16.80
2022-10-04T10:44:02.938Z,17.00
2022-10-04T10:46:42.735Z,17.00
2022-10-04T10:49:12.562Z,17.10
2022-10-04T10:51:57.925Z,17.30
2022-10-04T10:54:50.485Z,17.60
2022-10-04T10:57:55.927Z,17.80
2022-10-04T11:00:25.850Z,18.10
2022-10-04T11:03:32.220Z,18.40
2022-10-04T11:06:15.046Z,18.40
2022-10-04T11:09:05.413Z,18.50
2022-10-04T11:11:50.555Z,18.70
2022-10-04T11:14:48.556Z,18.80
2022-10-04T11:17:46.617Z,18.90
2022-10-04T11:20:59.353Z,19.10
2022-10-04T11:23:58.866Z,19.40
2022-10-04T11:26:59.522Z,19.70
2022-10-04T11:29:32.391Z,20.10
2022-10-04T11:32:01.870Z,20.20
2022-10-04T11:35:01.219Z,20.20
2022-10-04T11:37:43.921Z,20.40
2022-10-04T11:40:26.396Z,20.40
2022-10-04T11:43:05.094Z,20.60
2022-10-04T11:45:50.427Z,20.80
2022-10-04T11:48:37.705Z,21.00
2022-10-04T11:51:28.860Z,21.30
2022-10-04T11:54:04.747Z,22.10
2022-10-04T11:56:50.296Z,23.00
2022-10-04T11:59:58.707Z,23.40
2022-10-04T12:02:58.618Z,23.80
2022-10-04T12:05:51.370Z,24.10
2022-10-04T12:08:39.523Z,24.80
2022-10-04T12:11:51.461Z,25.90
2022-10-04T12:14:59.600Z,25.80
2022-10-04T12:18:00.276Z,26.20
2022-10-04T12:20:53.644Z,27.20
2022-10-04T12:23:45.806Z,26.40
2022-10-04T12:26:53.877Z,25.10
2022-10-04T12:29:33.159Z,25.10
2022-10-04T12:32:09.261Z,26.70
2022-10-04T12:34:59.785Z,27.20
2022-10-04T12:37:59.091Z,27.10
2022-10-04T12:40:45.912Z,26.80
2022-10-04T12:43:50.964Z,27.70
2022-10-04T12:46:57.542Z,27.60
2022-10-04T12:49:47.942Z,27.80
2022-10-04T12:52:44.406Z,28.60
2022-10-04T12:55:57.231Z,28.40
2022-10-04T13:01:56.181Z,28.40
2022-10-04T13:04:39.725Z,28.70
2022-10-04T13:07:31.995Z,28.60
2022-10-04T13:18:29.992Z,28.90
2022-10-04T13:21:12.477Z,28.80
2022-10-04T13:24:04.229Z,28.80
2022-10-04T13:26:55.897Z,29.20
2022-10-04T13:29:44.043Z,29.30
2022-10-04T13:32:28.485Z,29.10
2022-10-04T13:35:10.685Z,29.00
2022-10-04T13:38:17.052Z,29.30
2022-10-04T13:41:17.213Z,29.40
2022-10-04T16:51:18.225Z,22.80
2022-10-04T16:54:07.184Z,22.70
2022-10-04T17:02:25.221Z,22.20
2022-10-04T17:05:39.579Z,22.00
2022-10-04T17:08:23.535Z,21.90
2022-10-04T17:17:58.085Z,21.60
2022-10-04T17:28:14.862Z,21.10
2022-10-04T17:35:11.234Z,21.00
2022-10-04T17:38:26.808Z,20.80
2022-10-04T17:40:53.913Z,20.60
2022-10-04T17:43:57.509Z,20.40
2022-10-04T17:46:39.824Z,20.50
2022-10-04T17:49:29.232Z,20.50
2022-10-04T17:52:21.531Z,20.40
2022-10-04T17:55:17.687Z,20.40
2022-10-04T17:58:07.424Z,20.20
2022-10-04T18:01:26.784Z,19.90
2022-10-04T18:04:17.213Z,19.70
2022-10-04T18:06:57.842Z,19.80
2022-10-04T18:09:27.852Z,19.60
2022-10-04T18:12:14.933Z,19.70
2022-10-04T18:15:00.302Z,19.40
2022-10-04T18:17:44.615Z,19.00
2022-10-04T18:20:27.627Z,19.10
2022-10-04T18:23:20.991Z,19.10
2022-10-04T18:25:48.965Z,19.20
2022-10-04T18:28:22.459Z,19.30
2022-10-04T18:31:01.563Z,18.90
2022-10-04T18:33:50.480Z,18.80
2022-10-04T18:36:19.370Z,18.90
2022-10-04T18:39:15.831Z,18.60
2022-10-04T18:41:52.840Z,18.60
2022-10-04T18:44:57.157Z,18.60
2022-10-04T18:47:32.463Z,18.60
2022-10-04T18:50:05.370Z,18.70
2022-10-04T18:52:53.933Z,18.70
2022-10-04T18:55:27.541Z,18.60
2022-10-04T18:58:36.554Z,18.60
2022-10-04T19:01:50.497Z,18.40
2022-10-04T19:04:34.993Z,18.50
2022-10-04T19:07:14.577Z,18.60
2022-10-04T19:10:02.578Z,18.70
2022-10-04T19:12:43.602Z,18.30
2022-10-04T19:15:27.872Z,18.20
2022-10-04T19:18:22.969Z,18.00
2022-10-04T19:21:00.597Z,18.00
2022-10-04T19:23:33.573Z,17.90
2022-10-04T19:26:31.650Z,17.80
2022-10-04T19:29:25.700Z,17.80
2022-10-04T19:32:07.763Z,17.80
2022-10-04T19:34:58.624Z,17.60
2022-10-04T19:37:40.766Z,17.20
2022-10-04T19:40:23.847Z,17.00
2022-10-04T19:43:05.891Z,17.30
2022-10-04T19:45:47.896Z,17.40
2022-10-04T19:48:24.656Z,17.40
2022-10-04T19:50:56.941Z,17.40
2022-10-04T19:53:23.836Z,17.40
2022-10-04T19:55:57.704Z,17.30
2022-10-04T19:58:40.728Z,17.10
2022-10-04T20:01:33.673Z,17.00
2022-10-04T20:04:22.053Z,17.00
2022-10-04T20:06:59.453Z,17.10
2022-10-04T20:09:41.181Z,17.30
2022-10-04T20:12:37.744Z,17.30
2022-10-04T20:15:14.990Z,17.40
2022-10-04T20:17:45.810Z,17.30
2022-10-04T20:20:43.521Z,17.40
2022-10-04T20:23:12.053Z,17.40
2022-10-04T20:25:47.413Z,17.50
2022-10-04T20:28:26.743Z,17.50
2022-10-04T20:31:01.045Z,17.40
2022-10-04T20:33:33.797Z,17.30
2022-10-04T20:36:01.669Z,17.40
2022-10-04T20:38:44.233Z,17.40
2022-10-04T20:41:29.392Z,16.80
2022-10-04T20:44:06.398Z,17.00
2022-10-04T20:46:39.386Z,16.90
2022-10-04T20:49:15.693Z,17.00
2022-10-04T20:51:53.024Z,17.00
2022-10-04T20:54:21.815Z,17.00
2022-10-04T20:56:56.971Z,17.00
2022-10-04T20:59:24.038Z,17.00
2022-10-04T21:02:02.463Z,16.90
2022-10-04T21:04:44.193Z,16.90
2022-10-04T21:07:16.641Z,16.80
2022-10-04T21:09:43.841Z,16.70
2022-10-04T21:12:35.569Z,16.70
2022-10-04T21:15:17.641Z,16.70
2022-10-04T21:17:59.478Z,16.60
2022-10-04T21:20:43.496Z,16.50
2022-10-04T21:23:17.429Z,16.50
2022-10-04T21:25:44.286Z,16.40
2022-10-04T21:28:31.953Z,16.30
2022-10-04T21:31:00.723Z,16.40
2022-10-04T21:33:27.632Z,16.40
2022-10-04T21:35:54.447Z,16.30
2022-10-04T21:38:21.237Z,16.30
2022-10-04T21:40:50.489Z,16.30
2022-10-04T21:43:17.358Z,16.30
2022-10-04T21:45:44.205Z,16.30
2022-10-04T21:48:10.965Z,16.20
2022-10-04T21:50:37.788Z,16.20
2022-10-04T21:53:04.743Z,16.20
2022-10-04T21:55:31.480Z,16.00
2022-10-04T21:57:58.450Z,16.00
2022-10-04T22:00:25.251Z,16.00
2022-10-04T22:02:52.145Z,15.90
2022-10-04T22:05:18.889Z,16.00
2022-10-04T22:07:45.619Z,15.90
2022-10-04T22:10:12.764Z,15.90
2022-10-04T22:12:50.094Z,15.90
2022-10-04T22:15:17.107Z,15.80
2022-10-04T22:21:31.378Z,15.80
2022-10-04T22:24:03.021Z,15.80
2022-10-04T22:26:37.632Z,15.70
2022-10-04T22:29:12.683Z,15.60
2022-10-04T22:34:23.268Z,15.60
2022-10-04T22:39:34.883Z,15.60
2022-10-04T22:42:09.184Z,15.60
2022-10-04T22:44:38.471Z,15.50
2022-10-04T22:53:48.200Z,15.50
2022-10-04T23:13:33.221Z,15.40
2022-10-04T23:16:26.101Z,15.40
2022-10-04T23:31:43.845Z,15.10
2022-10-04T23:37:07.840Z,15.00
2022-10-04T23:39:37.013Z,14.90
2022-10-04T23:42:26.092Z,14.90
2022-10-04T23:44:53.160Z,15.00
2022-10-04T23:47:21.550Z,15.00
2022-10-04T23:49:51.692Z,15.00
2022-10-04T23:52:26.356Z,15.00
2022-10-04T23:54:54.122Z,15.00
2022-10-04T23:57:26.922Z,15.00
2022-10-04T23:59:58.396Z,14.90
